sensor_id;sensor_type;location;lat;lon;timestamp;pressure;altitude;pressure_sealevel;temperature;humidity
30338;BME280;17143;51.888;5.408;2023-04-07T00:00:46;101297.88;;;9.53;100.00
30338;BME280;17143;51.888;5.408;2023-04-07T00:15:47;101302.91;;;9.50;100.00
30338;BME280;17143;51.888;5.408;2023-04-07T00:30:51;101306.78;;;9.44;100.00
30338;BME280;17143;51.888;5.408;2023-04-07T00:45:53;101310.56;;;9.36;100.00
30338;BME280;17143;51.888;5.408;2023-04-07T01:01:01;101304.78;;;9.40;100.00
30338;BME280;17143;51.888;5.408;2023-04-07T01:16:14;101296.59;;;9.34;100.00
30338;BME280;17143;51.888;5.408;2023-04-07T01:31:24;101291.97;;;9.30;100.00
30338;BME280;17143;51.888;5.408;2023-04-07T01:46:27;101317.16;;;9.31;100.00
30338;BME280;17143;51.888;5.408;2023-04-07T02:01:29;101319.06;;;9.33;100.00
30338;BME280;17143;51.888;5.408;2023-04-07T02:16:32;101321.66;;;9.33;100.00
30338;BME280;17143;51.888;5.408;2023-04-07T02:31:36;101329.97;;;9.28;100.00
30338;BME280;17143;51.888;5.408;2023-04-07T02:46:38;101328.16;;;9.27;100.00
30338;BME280;17143;51.888;5.408;2023-04-07T03:01:40;101326.38;;;9.26;100.00
30338;BME280;17143;51.888;5.408;2023-04-07T03:16:43;101331.28;;;9.21;100.00
30338;BME280;17143;51.888;5.408;2023-04-07T03:31:48;101324.34;;;9.22;100.00
30338;BME280;17143;51.888;5.408;2023-04-07T03:46:53;101323.47;;;9.21;100.00
30338;BME280;17143;51.888;5.408;2023-04-07T04:01:57;101331.75;;;9.15;100.00
30338;BME280;17143;51.888;5.408;2023-04-07T04:17:00;101340.94;;;9.10;100.00
30338;BME280;17143;51.888;5.408;2023-04-07T04:32:22;101349.31;;;9.06;100.00
30338;BME280;17143;51.888;5.408;2023-04-07T04:47:24;101368.13;;;9.02;100.00
30338;BME280;17143;51.888;5.408;2023-04-07T05:02:27;101382.31;;;9.07;100.00
30338;BME280;17143;51.888;5.408;2023-04-07T05:17:29;101375.09;;;9.03;100.00
30338;BME280;17143;51.888;5.408;2023-04-07T05:32:34;101387.09;;;9.01;100.00
30338;BME280;17143;51.888;5.408;2023-04-07T05:47:43;101400.84;;;9.00;100.00
30338;BME280;17143;51.888;5.408;2023-04-07T06:02:46;101396.88;;;9.05;100.00
30338;BME280;17143;51.888;5.408;2023-04-07T06:17:52;101415.50;;;9.11;100.00
30338;BME280;17143;51.888;5.408;2023-04-07T06:32:54;101421.59;;;9.37;100.00
30338;BME280;17143;51.888;5.408;2023-04-07T06:47:56;101441.03;;;9.55;100.00
30338;BME280;17143;51.888;5.408;2023-04-07T07:02:58;101454.28;;;9.71;100.00
30338;BME280;17143;51.888;5.408;2023-04-07T07:18:01;101464.38;;;9.79;100.00
30338;BME280;17143;51.888;5.408;2023-04-07T07:33:03;101475.69;;;10.06;100.00
30338;BME280;17143;51.888;5.408;2023-04-07T07:48:05;101483.75;;;10.22;100.00
30338;BME280;17143;51.888;5.408;2023-04-07T08:03:07;101503.00;;;10.24;100.00
30338;BME280;17143;51.888;5.408;2023-04-07T08:18:09;101525.03;;;10.43;100.00
30338;BME280;17143;51.888;5.408;2023-04-07T08:33:11;101523.44;;;10.45;100.00
30338;BME280;17143;51.888;5.408;2023-04-07T08:48:16;101539.25;;;10.74;100.00
30338;BME280;17143;51.888;5.408;2023-04-07T09:03:18;101541.53;;;10.82;100.00
30338;BME280;17143;51.888;5.408;2023-04-07T09:18:21;101554.47;;;10.81;100.00
30338;BME280;17143;51.888;5.408;2023-04-07T09:33:27;101565.78;;;10.81;100.00
30338;BME280;17143;51.888;5.408;2023-04-07T09:48:29;101571.91;;;10.95;100.00
30338;BME280;17143;51.888;5.408;2023-04-07T10:03:31;101574.56;;;11.50;100.00
30338;BME280;17143;51.888;5.408;2023-04-07T10:18:35;101580.94;;;11.55;100.00
30338;BME280;17143;51.888;5.408;2023-04-07T10:33:48;101602.50;;;11.38;100.00
30338;BME280;17143;51.888;5.408;2023-04-07T10:49:08;101613.88;;;11.53;100.00
30338;BME280;17143;51.888;5.408;2023-04-07T11:04:11;101619.94;;;11.39;100.00
30338;BME280;17143;51.888;5.408;2023-04-07T11:19:13;101626.56;;;11.34;100.00
30338;BME280;17143;51.888;5.408;2023-04-07T11:34:15;101629.63;;;11.27;100.00
30338;BME280;17143;51.888;5.408;2023-04-07T11:49:17;101643.66;;;11.29;100.00
30338;BME280;17143;51.888;5.408;2023-04-07T12:04:19;101650.84;;;11.33;100.00
30338;BME280;17143;51.888;5.408;2023-04-07T12:19:21;101666.50;;;11.33;100.00
30338;BME280;17143;51.888;5.408;2023-04-07T12:34:23;101683.38;;;11.38;100.00
30338;BME280;17143;51.888;5.408;2023-04-07T12:49:25;101680.63;;;11.50;100.00
30338;BME280;17143;51.888;5.408;2023-04-07T13:04:27;101694.31;;;11.87;100.00
30338;BME280;17143;51.888;5.408;2023-04-07T13:19:29;101694.69;;;11.93;100.00
30338;BME280;17143;51.888;5.408;2023-04-07T13:34:31;101695.50;;;11.92;100.00
30338;BME280;17143;51.888;5.408;2023-04-07T13:49:33;101709.59;;;12.51;100.00
30338;BME280;17143;51.888;5.408;2023-04-07T14:04:35;101703.00;;;12.28;100.00
30338;BME280;17143;51.888;5.408;2023-04-07T14:19:37;101712.81;;;12.32;100.00
30338;BME280;17143;51.888;5.408;2023-04-07T14:34:40;101715.47;;;12.19;100.00
30338;BME280;17143;51.888;5.408;2023-04-07T14:49:42;101714.91;;;12.10;100.00
30338;BME280;17143;51.888;5.408;2023-04-07T15:04:44;101724.22;;;11.92;100.00
30338;BME280;17143;51.888;5.408;2023-04-07T15:19:46;101738.63;;;11.85;100.00
30338;BME280;17143;51.888;5.408;2023-04-07T15:34:48;101754.16;;;11.84;100.00
30338;BME280;17143;51.888;5.408;2023-04-07T15:49:50;101748.72;;;11.68;100.00
30338;BME280;17143;51.888;5.408;2023-04-07T16:04:52;101764.63;;;11.44;100.00
30338;BME280;17143;51.888;5.408;2023-04-07T16:19:54;101773.38;;;11.32;100.00
30338;BME280;17143;51.888;5.408;2023-04-07T16:34:56;101778.78;;;11.35;100.00
30338;BME280;17143;51.888;5.408;2023-04-07T16:49:58;101796.91;;;11.20;100.00
30338;BME280;17143;51.888;5.408;2023-04-07T17:05:00;101808.34;;;10.96;100.00
30338;BME280;17143;51.888;5.408;2023-04-07T17:20:03;101825.16;;;10.88;100.00
30338;BME280;17143;51.888;5.408;2023-04-07T17:35:06;101843.28;;;10.86;100.00
30338;BME280;17143;51.888;5.408;2023-04-07T17:50:09;101864.63;;;10.81;100.00
30338;BME280;17143;51.888;5.408;2023-04-07T18:05:12;101880.50;;;10.72;100.00
30338;BME280;17143;51.888;5.408;2023-04-07T18:20:14;101901.44;;;10.61;100.00
30338;BME280;17143;51.888;5.408;2023-04-07T18:35:16;101912.41;;;10.57;100.00
30338;BME280;17143;51.888;5.408;2023-04-07T18:50:18;101937.00;;;10.49;100.00
30338;BME280;17143;51.888;5.408;2023-04-07T19:05:20;101947.78;;;10.42;100.00
30338;BME280;17143;51.888;5.408;2023-04-07T19:20:22;101962.19;;;10.36;100.00
30338;BME280;17143;51.888;5.408;2023-04-07T19:35:24;101968.53;;;10.28;100.00
30338;BME280;17143;51.888;5.408;2023-04-07T19:50:26;101972.50;;;10.23;100.00
30338;BME280;17143;51.888;5.408;2023-04-07T20:05:29;101984.53;;;10.21;100.00
30338;BME280;17143;51.888;5.408;2023-04-07T20:20:31;101993.91;;;10.19;100.00
30338;BME280;17143;51.888;5.408;2023-04-07T20:35:34;102007.59;;;10.17;100.00
30338;BME280;17143;51.888;5.408;2023-04-07T20:50:36;102012.03;;;10.18;100.00
30338;BME280;17143;51.888;5.408;2023-04-07T21:05:38;102027.31;;;10.13;100.00
30338;BME280;17143;51.888;5.408;2023-04-07T21:20:40;102032.25;;;10.10;100.00
30338;BME280;17143;51.888;5.408;2023-04-07T21:35:42;102028.94;;;10.01;100.00
30338;BME280;17143;51.888;5.408;2023-04-07T21:50:44;102035.75;;;9.99;100.00
30338;BME280;17143;51.888;5.408;2023-04-07T22:05:46;102036.19;;;9.94;100.00
30338;BME280;17143;51.888;5.408;2023-04-07T22:20:48;102043.41;;;9.86;100.00
30338;BME280;17143;51.888;5.408;2023-04-07T22:35:50;102056.34;;;9.85;100.00
30338;BME280;17143;51.888;5.408;2023-04-07T22:50:52;102066.84;;;9.86;100.00
30338;BME280;17143;51.888;5.408;2023-04-07T23:05:54;102074.88;;;9.89;100.00
30338;BME280;17143;51.888;5.408;2023-04-07T23:20:56;102080.34;;;9.92;100.00
30338;BME280;17143;51.888;5.408;2023-04-07T23:35:58;102085.41;;;9.91;100.00
30338;BME280;17143;51.888;5.408;2023-04-07T23:51:00;102091.03;;;9.85;100.00
